Time;durP1;ratioP1;P1;durP2;ratioP2;P2;SDS_P1;SDS_P2;PMS_P1;PMS_P2;Temp;Humidity;BMP_temperature;BMP_pressure;BME280_temperature;BME280_humidity;BME280_pressure;Samples;Min_cycle;Max_cycle;Signal;HPM_P1;HPM_P2
2022/08/21 00:01:54;;;;;;;1.40;1.17;;;22.30;78.00;;;;;;6225591;28;20221;-64
2022/08/21 00:04:57;;;;;;;2.10;1.03;;;22.30;78.30;;;;;;6224845;28;20224;-64
2022/08/21 00:08:00;;;;;;;1.60;1.23;;;22.40;78.30;;;;;;6230639;28;20318;-64
2022/08/21 00:11:04;;;;;;;1.70;1.60;;;22.40;78.00;;;;;;6235838;28;20232;-64
2022/08/21 00:14:10;;;;;;;1.53;1.33;;;22.30;77.90;;;;;;6232772;28;20228;-64
2022/08/21 00:17:13;;;;;;;1.23;1.00;;;22.30;77.90;;;;;;6230233;28;20247;-64
2022/08/21 00:20:18;;;;;;;1.50;1.23;;;22.30;78.20;;;;;;6229879;28;20239;-64
2022/08/21 00:23:21;;;;;;;2.17;1.20;;;22.30;78.30;;;;;;6229827;28;20225;-64
2022/08/21 00:26:24;;;;;;;1.60;1.50;;;22.30;78.40;;;;;;6237882;28;20229;-65
2022/08/21 00:29:29;;;;;;;1.40;1.30;;;22.30;78.30;;;;;;6243198;28;20236;-65
2022/08/21 00:32:32;;;;;;;1.60;1.50;;;22.30;78.60;;;;;;6241634;28;20228;-65
2022/08/21 00:35:39;;;;;;;2.73;1.33;;;22.30;78.70;;;;;;6240111;28;20241;-65
2022/08/21 00:38:42;;;;;;;1.70;1.60;;;22.30;79.40;;;;;;6239900;28;20235;-65
2022/08/21 00:41:46;;;;;;;1.90;1.47;;;22.40;79.50;;;;;;6229270;28;20240;-65
2022/08/21 00:44:51;;;;;;;2.27;1.40;;;22.30;79.30;;;;;;6229260;28;20232;-65
2022/08/21 00:47:55;;;;;;;1.63;1.53;;;22.20;78.70;;;;;;6229315;28;20237;-65
2022/08/21 00:51:05;;;;;;;1.30;1.10;;;22.20;79.20;;;;;;6229382;28;20233;-65
2022/08/21 00:54:11;;;;;;;1.60;1.50;;;22.30;80.00;;;;;;6229326;28;20547;-65
2022/08/21 00:57:27;;;;;;;1.53;1.43;;;22.30;80.00;;;;;;6229290;28;20221;-65
2022/08/21 01:00:34;;;;;;;1.40;1.30;;;22.10;80.10;;;;;;6229437;28;20248;-65
2022/08/21 01:03:38;;;;;;;1.80;1.40;;;22.10;79.90;;;;;;6229086;28;20229;-65
2022/08/21 01:06:47;;;;;;;2.13;1.50;;;22.10;80.00;;;;;;6229006;28;20235;-65
2022/08/21 01:09:51;;;;;;;1.53;1.43;;;22.00;79.10;;;;;;6228687;28;20229;-64
2022/08/21 01:12:56;;;;;;;1.30;1.20;;;22.00;80.20;;;;;;6228692;28;20710;-65
2022/08/21 01:16:04;;;;;;;1.43;1.33;;;22.00;80.20;;;;;;6228523;28;20229;-65
2022/08/21 01:19:10;;;;;;;2.47;1.40;;;22.10;80.40;;;;;;6228796;28;20232;-64
2022/08/21 01:22:15;;;;;;;1.53;1.43;;;22.10;80.70;;;;;;6228770;28;20216;-64
2022/08/21 01:25:20;;;;;;;1.40;1.30;;;22.10;80.90;;;;;;6228438;28;20233;-64
2022/08/21 01:28:25;;;;;;;2.20;1.33;;;22.10;79.50;;;;;;6219307;28;20235;-64
2022/08/21 01:31:31;;;;;;;1.33;1.23;;;22.10;79.80;;;;;;6228094;28;20209;-64
2022/08/21 01:34:37;;;;;;;1.27;1.13;;;22.10;80.30;;;;;;6229257;28;20241;-64
2022/08/21 01:37:41;;;;;;;1.50;1.40;;;22.20;80.10;;;;;;6227821;28;20237;-65
2022/08/21 01:40:45;;;;;;;1.50;1.30;;;22.20;80.40;;;;;;6228592;28;20229;-65
2022/08/21 01:43:48;;;;;;;2.57;1.60;;;22.10;79.80;;;;;;6228235;28;20228;-65
2022/08/21 01:46:52;;;;;;;2.37;1.60;;;22.20;80.30;;;;;;6227694;28;20255;-65
2022/08/21 01:49:55;;;;;;;1.60;1.50;;;22.10;80.20;;;;;;6227717;28;20225;-65
2022/08/21 01:53:00;;;;;;;1.70;1.60;;;22.10;79.00;;;;;;6227951;28;20232;-65
2022/08/21 01:56:04;;;;;;;1.63;1.53;;;22.20;78.70;;;;;;6227763;28;20244;-65
2022/08/21 01:59:14;;;;;;;1.50;1.40;;;22.10;78.50;;;;;;6227922;28;20236;-64
2022/08/21 02:02:17;;;;;;;1.53;1.43;;;22.10;78.10;;;;;;6227581;28;20229;-64
2022/08/21 02:05:21;;;;;;;1.27;1.17;;;22.10;78.10;;;;;;6227228;28;20240;-65
2022/08/21 02:08:26;;;;;;;1.50;1.40;;;22.10;78.30;;;;;;6237871;28;20231;-64
2022/08/21 02:11:29;;;;;;;2.00;1.63;;;22.10;76.70;;;;;;6238974;28;20232;-64
2022/08/21 02:14:32;;;;;;;1.73;1.63;;;22.10;76.20;;;;;;6245965;28;20224;-64
2022/08/21 02:17:40;;;;;;;1.83;1.50;;;22.00;76.60;;;;;;6252007;28;20232;-64
2022/08/21 02:20:46;;;;;;;1.97;1.77;;;22.00;76.40;;;;;;6241381;28;20221;-64
2022/08/21 02:23:51;;;;;;;2.03;1.60;;;22.00;75.90;;;;;;6232343;28;20311;-64
2022/08/21 02:26:54;;;;;;;2.30;1.87;;;22.00;76.10;;;;;;6226797;28;20275;-64
2022/08/21 02:29:58;;;;;;;2.17;1.97;;;22.00;77.40;;;;;;6234891;28;20229;-64
2022/08/21 02:33:01;;;;;;;1.80;1.70;;;22.10;77.60;;;;;;6235277;28;20224;-64
2022/08/21 02:36:06;;;;;;;1.73;1.63;;;22.10;77.30;;;;;;6232301;28;20237;-63
2022/08/21 02:39:10;;;;;;;1.70;1.60;;;22.10;77.40;;;;;;6232171;28;20225;-63
2022/08/21 02:42:13;;;;;;;1.73;1.63;;;22.10;78.20;;;;;;6226365;28;20714;-63
2022/08/21 02:45:18;;;;;;;1.87;1.77;;;22.10;78.80;;;;;;6226672;28;20698;-63
2022/08/21 02:48:23;;;;;;;2.20;2.03;;;22.10;78.90;;;;;;6226541;28;20229;-63
2022/08/21 02:51:27;;;;;;;1.73;1.63;;;22.10;78.50;;;;;;6226650;28;20240;-64
2022/08/21 02:54:31;;;;;;;1.90;1.80;;;22.00;77.30;;;;;;6226345;28;20225;-63
2022/08/21 02:57:34;;;;;;;1.80;1.70;;;22.00;77.10;;;;;;6225823;28;20240;-63
2022/08/21 03:00:39;;;;;;;1.70;1.60;;;22.00;78.20;;;;;;6226199;28;20247;-63
2022/08/21 03:03:44;;;;;;;2.23;1.77;;;22.00;78.90;;;;;;6226093;28;20248;-64
2022/08/21 03:06:48;;;;;;;1.90;1.70;;;21.90;77.20;;;;;;6226082;28;20233;-64
2022/08/21 03:09:52;;;;;;;2.10;1.57;;;21.90;78.60;;;;;;6226048;28;20247;-64
2022/08/21 03:12:58;;;;;;;2.03;1.90;;;21.90;80.10;;;;;;6225787;28;20232;-64
2022/08/21 03:16:01;;;;;;;1.57;1.37;;;21.80;80.40;;;;;;6225775;28;20237;-64
2022/08/21 03:19:07;;;;;;;1.80;1.70;;;21.90;80.40;;;;;;6225828;28;20236;-64
2022/08/21 03:22:10;;;;;;;1.53;1.43;;;21.80;80.40;;;;;;6225253;28;20236;-64
2022/08/21 03:25:14;;;;;;;2.63;2.13;;;21.80;80.40;;;;;;6225317;28;20236;-64
2022/08/21 03:28:21;;;;;;;2.10;1.90;;;21.90;80.40;;;;;;6225296;28;20269;-64
2022/08/21 03:31:28;;;;;;;1.83;1.73;;;21.80;80.00;;;;;;6225922;28;20213;-64
2022/08/21 03:34:31;;;;;;;2.50;2.30;;;21.80;80.50;;;;;;6225544;28;20239;-64
2022/08/21 03:37:35;;;;;;;3.60;2.03;;;21.80;80.70;;;;;;6225265;28;20240;-64
2022/08/21 03:40:40;;;;;;;2.10;1.90;;;21.80;80.70;;;;;;6225871;28;20264;-64
2022/08/21 03:43:43;;;;;;;1.63;1.53;;;21.70;79.90;;;;;;6225737;28;20225;-64
2022/08/21 03:46:47;;;;;;;1.93;1.80;;;21.70;81.30;;;;;;6224778;28;20263;-64
2022/08/21 03:49:50;;;;;;;1.83;1.63;;;21.70;81.50;;;;;;6225844;28;20221;-64
2022/08/21 03:52:53;;;;;;;2.50;2.30;;;21.60;81.20;;;;;;6225281;28;20225;-64
2022/08/21 03:55:58;;;;;;;3.30;2.30;;;21.60;81.60;;;;;;6225085;28;20229;-64
2022/08/21 03:59:02;;;;;;;2.33;2.13;;;21.50;82.20;;;;;;6225615;28;20225;-64
2022/08/21 04:02:07;;;;;;;2.63;2.00;;;21.50;82.40;;;;;;6225202;28;20703;-65
2022/08/21 04:05:11;;;;;;;3.17;2.30;;;21.40;83.00;;;;;;6225414;28;20240;-64
2022/08/21 04:08:17;;;;;;;3.20;1.77;;;21.40;83.20;;;;;;6224939;28;20529;-64
2022/08/21 04:11:22;;;;;;;2.17;2.07;;;21.30;82.80;;;;;;6225701;28;20225;-64
2022/08/21 04:14:25;;;;;;;2.00;1.90;;;21.20;84.10;;;;;;6225286;28;20232;-64
2022/08/21 04:17:28;;;;;;;1.90;1.80;;;21.00;84.40;;;;;;6225189;28;20248;-65
2022/08/21 04:20:31;;;;;;;1.60;1.50;;;21.00;84.60;;;;;;6225252;28;20233;-65
2022/08/21 04:23:34;;;;;;;2.20;2.00;;;20.90;85.40;;;;;;6225199;28;20600;-65
2022/08/21 04:26:40;;;;;;;2.27;2.10;;;20.90;86.00;;;;;;6225320;28;20233;-65
2022/08/21 04:29:43;;;;;;;2.10;2.00;;;20.90;86.10;;;;;;6225301;28;20231;-65
2022/08/21 04:32:49;;;;;;;2.33;2.10;;;20.90;86.00;;;;;;6224984;28;20688;-65
2022/08/21 04:35:53;;;;;;;2.00;1.90;;;20.90;86.10;;;;;;6224873;28;20246;-65
2022/08/21 04:38:56;;;;;;;2.27;2.17;;;20.90;86.10;;;;;;6226083;28;20240;-65
2022/08/21 04:42:00;;;;;;;2.33;1.87;;;21.00;86.20;;;;;;6217090;28;20233;-65
2022/08/21 04:45:04;;;;;;;2.60;2.40;;;21.00;86.60;;;;;;6226902;28;20242;-64
2022/08/21 04:48:09;;;;;;;2.53;2.33;;;21.10;87.00;;;;;;6230137;28;20653;-64
2022/08/21 04:51:20;;;;;;;2.20;2.00;;;21.10;87.10;;;;;;6225662;28;20287;-64
2022/08/21 04:54:23;;;;;;;2.00;1.90;;;21.10;88.00;;;;;;6225377;28;20229;-64
2022/08/21 04:57:28;;;;;;;2.40;2.20;;;21.20;88.40;;;;;;6226810;28;20243;-64
2022/08/21 05:00:53;;;;;;;2.43;2.23;;;21.20;89.10;;;;;;6229378;28;20561;-64
2022/08/21 05:03:59;;;;;;;3.30;2.20;;;21.20;90.00;;;;;;6229355;28;20233;-64
2022/08/21 05:07:06;;;;;;;2.07;1.87;;;21.30;90.10;;;;;;6229540;28;20241;-64
2022/08/21 05:10:11;;;;;;;2.13;1.93;;;21.40;90.20;;;;;;6229214;28;20237;-65
2022/08/21 05:13:17;;;;;;;2.83;2.13;;;21.50;90.10;;;;;;6229295;28;20229;-65
2022/08/21 05:16:20;;;;;;;2.10;1.90;;;21.60;89.80;;;;;;6229466;28;20229;-64
2022/08/21 05:19:39;;;;;;;1.73;1.63;;;21.70;88.90;;;;;;6229383;28;20680;-64
2022/08/21 05:22:43;;;;;;;2.10;1.90;;;21.60;88.90;;;;;;6229305;28;20225;-64
2022/08/21 05:25:46;;;;;;;3.50;1.87;;;21.70;89.20;;;;;;6229089;28;20229;-64
2022/08/21 05:28:51;;;;;;;2.60;2.40;;;21.70;89.20;;;;;;6230164;28;20232;-64
2022/08/21 05:31:55;;;;;;;2.40;2.20;;;21.70;89.50;;;;;;6229811;28;20229;-64
2022/08/21 05:34:58;;;;;;;2.53;2.33;;;21.70;89.00;;;;;;6229896;28;20229;-64
2022/08/21 05:38:02;;;;;;;2.07;1.97;;;21.80;88.70;;;;;;6229862;28;20239;-65
2022/08/21 05:41:05;;;;;;;2.20;2.00;;;21.90;88.40;;;;;;6229551;28;20244;-64
2022/08/21 05:44:10;;;;;;;2.20;2.00;;;22.00;88.60;;;;;;6224908;28;20232;-64
2022/08/21 05:47:14;;;;;;;2.47;2.27;;;22.10;88.20;;;;;;6229134;28;20687;-64
2022/08/21 05:50:17;;;;;;;1.90;1.67;;;22.20;88.00;;;;;;6228759;28;20229;-64
2022/08/21 05:53:22;;;;;;;2.03;1.90;;;22.30;87.90;;;;;;6228351;28;20243;-64
2022/08/21 05:56:25;;;;;;;2.07;1.97;;;22.40;85.30;;;;;;6228958;28;20232;-64
2022/08/21 05:59:30;;;;;;;2.30;2.10;;;22.40;86.20;;;;;;6227726;28;20236;-64
2022/08/21 06:02:33;;;;;;;2.20;2.00;;;22.60;85.90;;;;;;6228774;28;20225;-64
2022/08/21 06:05:36;;;;;;;2.10;1.93;;;22.60;86.20;;;;;;6227961;28;20244;-64
2022/08/21 06:08:39;;;;;;;2.50;2.30;;;22.80;85.50;;;;;;6226833;28;20228;-64
2022/08/21 06:11:42;;;;;;;2.30;2.10;;;22.90;83.90;;;;;;6226395;28;20706;-64
2022/08/21 06:14:47;;;;;;;1.90;1.80;;;22.90;83.60;;;;;;6227005;28;20233;-64
2022/08/21 06:17:50;;;;;;;1.87;1.50;;;23.00;83.10;;;;;;6227167;28;20240;-64
2022/08/21 06:20:53;;;;;;;2.87;2.07;;;23.20;82.20;;;;;;6227116;28;20239;-65
2022/08/21 06:23:56;;;;;;;2.23;1.77;;;23.70;82.80;;;;;;6226914;28;20233;-64
2022/08/21 06:27:05;;;;;;;1.70;1.60;;;24.50;78.70;;;;;;6226553;28;20233;-64
2022/08/21 06:30:12;;;;;;;1.70;1.60;;;24.60;76.20;;;;;;6226749;28;20229;-64
2022/08/21 06:33:15;;;;;;;1.73;1.63;;;24.60;76.70;;;;;;6226823;28;20335;-64
2022/08/21 06:36:20;;;;;;;1.83;1.70;;;24.50;77.30;;;;;;6226772;28;20261;-65
2022/08/21 06:39:23;;;;;;;1.90;1.80;;;24.50;76.30;;;;;;6227026;28;20328;-65
2022/08/21 06:42:32;;;;;;;1.70;1.60;;;24.40;74.60;;;;;;6227309;28;20233;-65
2022/08/21 06:45:38;;;;;;;1.37;1.27;;;24.40;74.70;;;;;;6226930;28;20278;-65
2022/08/21 06:48:41;;;;;;;1.83;1.33;;;24.40;74.60;;;;;;6226591;28;20245;-65
2022/08/21 06:51:44;;;;;;;1.60;1.50;;;24.50;73.90;;;;;;6226442;28;20247;-65
2022/08/21 06:54:47;;;;;;;1.33;1.20;;;24.60;74.40;;;;;;6226739;28;20250;-64
2022/08/21 06:57:51;;;;;;;1.70;1.60;;;24.60;73.90;;;;;;6226301;28;20228;-63
2022/08/21 07:00:56;;;;;;;3.60;1.30;;;24.60;73.10;;;;;;6226409;28;20239;-64
2022/08/21 07:04:03;;;;;;;2.20;1.57;;;24.50;73.70;;;;;;6225850;28;20346;-64
2022/08/21 07:07:06;;;;;;;1.33;1.23;;;24.40;73.70;;;;;;6225968;28;20275;-63
2022/08/21 07:10:10;;;;;;;1.40;1.30;;;24.30;74.70;;;;;;6246681;28;20558;-63
2022/08/21 07:13:24;;;;;;;1.53;1.43;;;24.10;75.90;;;;;;6250720;28;20227;-63
2022/08/21 07:16:29;;;;;;;1.53;1.43;;;24.00;77.10;;;;;;6250161;28;20656;-64
2022/08/21 07:19:32;;;;;;;1.60;1.40;;;23.80;76.90;;;;;;6250036;28;20239;-63
2022/08/21 07:22:37;;;;;;;1.73;1.63;;;23.60;76.80;;;;;;6250090;28;20710;-64
2022/08/21 07:25:40;;;;;;;1.93;1.43;;;23.70;76.20;;;;;;6250187;28;20227;-64
2022/08/21 07:28:43;;;;;;;2.03;1.60;;;23.60;76.30;;;;;;6250355;28;20236;-63
2022/08/21 07:31:48;;;;;;;1.50;1.37;;;23.60;76.90;;;;;;6250268;28;20665;-64
2022/08/21 07:34:52;;;;;;;2.50;1.10;;;23.50;77.10;;;;;;6250217;28;20270;-64
2022/08/21 07:37:55;;;;;;;1.20;1.10;;;23.40;77.10;;;;;;6250096;28;20228;-64
2022/08/21 07:41:01;;;;;;;1.50;1.20;;;23.40;77.70;;;;;;6249938;28;20227;-64
2022/08/21 07:44:04;;;;;;;1.27;1.17;;;23.50;77.10;;;;;;6249794;28;20539;-64
2022/08/21 07:47:09;;;;;;;1.90;1.80;;;23.50;76.80;;;;;;6249791;28;20255;-64
2022/08/21 07:50:14;;;;;;;1.43;1.33;;;23.50;77.00;;;;;;6249696;28;20240;-64
2022/08/21 07:53:17;;;;;;;1.50;1.40;;;23.60;76.50;;;;;;6240895;28;20228;-64
2022/08/21 07:56:21;;;;;;;1.50;1.40;;;23.70;76.40;;;;;;6249668;28;20584;-64
2022/08/21 07:59:24;;;;;;;1.40;1.17;;;23.80;76.40;;;;;;6250349;28;20231;-64
2022/08/21 08:02:31;;;;;;;1.40;1.30;;;23.80;76.10;;;;;;6250122;28;20254;-65
2022/08/21 08:05:36;;;;;;;1.33;1.23;;;23.90;75.80;;;;;;6250212;28;20239;-65
2022/08/21 08:08:40;;;;;;;1.57;1.47;;;23.90;76.60;;;;;;6250128;28;20363;-65
2022/08/21 08:11:44;;;;;;;1.30;1.20;;;23.90;76.40;;;;;;6249985;28;20236;-65
2022/08/21 08:14:47;;;;;;;1.27;1.00;;;24.00;76.20;;;;;;6249592;28;20561;-64
2022/08/21 08:17:52;;;;;;;1.40;1.30;;;24.10;75.90;;;;;;6249962;28;20224;-64
2022/08/21 08:20:55;;;;;;;1.67;1.20;;;24.40;75.50;;;;;;6249452;28;20228;-64
2022/08/21 08:23:58;;;;;;;1.63;1.40;;;24.50;75.50;;;;;;6249702;28;20231;-64
2022/08/21 08:27:19;;;;;;;1.40;1.30;;;24.70;75.10;;;;;;6249278;28;20235;-64
2022/08/21 08:30:23;;;;;;;2.00;1.50;;;24.80;73.80;;;;;;6249607;28;20556;-64
2022/08/21 08:33:28;;;;;;;1.63;1.10;;;24.90;73.60;;;;;;6251772;28;20228;-64
2022/08/21 08:36:34;;;;;;;1.43;1.33;;;24.90;72.80;;;;;;6237178;28;20251;-64
2022/08/21 08:39:38;;;;;;;1.40;1.30;;;24.90;72.60;;;;;;6241555;28;20232;-64
2022/08/21 08:42:42;;;;;;;1.20;1.10;;;24.90;72.70;;;;;;6246896;28;20283;-63
2022/08/21 08:45:49;;;;;;;1.47;1.37;;;24.90;72.80;;;;;;6241562;28;20238;-63
2022/08/21 08:48:58;;;;;;;1.10;0.90;;;24.90;72.80;;;;;;6242709;28;20307;-64
2022/08/21 08:52:06;;;;;;;1.40;1.20;;;25.00;72.30;;;;;;6241165;28;20248;-63
2022/08/21 08:55:13;;;;;;;1.30;1.20;;;25.00;72.40;;;;;;6241659;28;20229;-64
2022/08/21 08:58:23;;;;;;;1.13;1.00;;;25.10;72.60;;;;;;6238350;28;20220;-64
2022/08/21 09:01:26;;;;;;;1.20;1.10;;;25.10;72.90;;;;;;6240438;28;20211;-64
2022/08/21 09:04:31;;;;;;;1.13;0.93;;;25.20;73.80;;;;;;6241928;28;20205;-64
2022/08/21 09:07:40;;;;;;;1.37;1.00;;;25.20;74.10;;;;;;6236982;28;20611;-64
2022/08/21 09:10:56;;;;;;;1.20;1.00;;;25.40;74.10;;;;;;6242131;28;20526;-63
2022/08/21 09:14:11;;;;;;;1.20;1.00;;;25.50;73.80;;;;;;6238368;28;20217;-63
2022/08/21 09:17:26;;;;;;;1.20;1.10;;;25.70;74.40;;;;;;6237468;28;20220;-63
2022/08/21 09:20:39;;;;;;;1.10;1.00;;;25.90;74.80;;;;;;6241528;28;20235;-64
2022/08/21 09:23:54;;;;;;;1.20;0.90;;;26.00;73.40;;;;;;6238088;28;20221;-64
2022/08/21 09:27:05;;;;;;;1.30;1.00;;;26.20;71.80;;;;;;6225982;28;20236;-64
2022/08/21 09:30:10;;;;;;;1.23;0.83;;;26.30;73.70;;;;;;6238450;28;20231;-64
2022/08/21 09:33:15;;;;;;;1.13;0.90;;;26.40;69.90;;;;;;6240646;28;20221;-64
2022/08/21 09:36:26;;;;;;;1.10;1.00;;;26.60;70.00;;;;;;6238696;28;20246;-64
2022/08/21 09:39:37;;;;;;;1.10;0.93;;;26.60;68.60;;;;;;6235233;28;20235;-64
2022/08/21 09:42:42;;;;;;;1.33;1.23;;;26.70;69.10;;;;;;6237069;28;20224;-64
2022/08/21 09:45:47;;;;;;;1.20;1.10;;;26.70;69.10;;;;;;6240219;28;20365;-64
2022/08/21 09:48:52;;;;;;;1.30;1.10;;;26.70;69.10;;;;;;6240888;28;20239;-65
2022/08/21 09:51:58;;;;;;;1.17;1.07;;;26.70;70.00;;;;;;6240783;28;20232;-64
2022/08/21 09:57:37;;;;;;;1.10;1.00;;;26.70;70.10;;;;;;6236482;28;20695;-64
2022/08/21 09:58:34;;;;;;;2.23;1.57;;;26.50;68.90;;;;;;6239136;28;20231;-64
2022/08/21 10:01:44;;;;;;;1.70;1.60;;;26.40;69.10;;;;;;6243795;28;20806;-64
2022/08/21 10:04:51;;;;;;;1.40;1.30;;;26.30;68.60;;;;;;6240476;28;20652;-64
2022/08/21 10:07:56;;;;;;;1.30;1.20;;;26.40;69.30;;;;;;6238531;28;20618;-65
2022/08/21 10:11:05;;;;;;;1.40;1.30;;;26.50;69.00;;;;;;6244616;28;20240;-64
2022/08/21 10:14:30;;;;;;;1.93;1.20;;;26.80;66.20;;;;;;6234260;28;20698;-64
2022/08/21 10:17:38;;;;;;;1.93;1.27;;;27.30;66.20;;;;;;6239970;28;20230;-64
2022/08/21 10:20:45;;;;;;;1.53;1.37;;;27.90;65.40;;;;;;6238755;28;20224;-64
2022/08/21 10:24:04;;;;;;;2.07;1.13;;;28.40;61.90;;;;;;6247951;28;20220;-64
2022/08/21 10:27:16;;;;;;;1.97;1.20;;;29.00;60.60;;;;;;6227123;28;20251;-63
2022/08/21 10:30:26;;;;;;;2.87;1.60;;;29.80;58.00;;;;;;6227096;28;20224;-63
2022/08/21 10:33:41;;;;;;;1.43;1.33;;;30.30;57.30;;;;;;6227114;28;20240;-64
2022/08/21 10:36:49;;;;;;;2.08;1.58;;;30.40;54.70;;;;;;6226733;28;20233;-63
2022/08/21 10:40:08;;;;;;;1.35;1.17;;;30.30;55.40;;;;;;6232699;28;20217;-64
2022/08/21 10:43:33;;;;;;;2.25;1.55;;;30.30;55.20;;;;;;6224622;28;20218;-65
2022/08/21 10:46:46;;;;;;;2.80;1.13;;;30.00;55.40;;;;;;6203196;28;20680;-65
2022/08/21 10:49:59;;;;;;;1.97;1.67;;;29.50;56.30;;;;;;6202649;28;20700;-66
2022/08/21 10:53:23;;;;;;;1.43;1.33;;;29.20;56.60;;;;;;6221679;28;20557;-65
2022/08/21 10:56:31;;;;;;;1.40;1.20;;;28.80;56.50;;;;;;6235081;28;20244;-65
2022/08/21 10:59:40;;;;;;;2.43;1.40;;;28.60;57.30;;;;;;6226724;28;20224;-64
2022/08/21 11:02:49;;;;;;;2.33;1.50;;;28.40;58.00;;;;;;6241784;28;20231;-64
2022/08/21 11:05:56;;;;;;;2.27;1.17;;;28.40;57.60;;;;;;6229713;28;20232;-64
2022/08/21 11:09:06;;;;;;;1.30;1.20;;;28.50;57.90;;;;;;6236449;28;20220;-64
2022/08/21 11:12:23;;;;;;;1.77;1.10;;;28.30;57.70;;;;;;6250578;28;20283;-64
2022/08/21 11:15:39;;;;;;;2.00;1.30;;;28.30;58.00;;;;;;6244706;28;20664;-65
2022/08/21 11:18:48;;;;;;;1.50;1.40;;;28.50;58.00;;;;;;6231992;28;20238;-65
2022/08/21 11:21:57;;;;;;;2.13;1.10;;;28.70;58.30;;;;;;6235888;28;20224;-66
2022/08/21 11:25:07;;;;;;;1.17;0.77;;;29.10;58.10;;;;;;6234464;28;20220;-65
2022/08/21 11:28:17;;;;;;;1.60;1.20;;;29.20;57.10;;;;;;6234406;28;20791;-65
2022/08/21 11:31:35;;;;;;;1.27;0.97;;;29.40;57.20;;;;;;6235873;28;20223;-66
2022/08/21 11:34:57;;;;;;;1.30;1.10;;;29.30;56.40;;;;;;6237102;28;20227;-65
2022/08/21 11:38:17;;;;;;;1.27;1.03;;;29.30;56.40;;;;;;6225431;28;20239;-66
2022/08/21 11:41:28;;;;;;;1.00;0.80;;;29.30;56.40;;;;;;6225252;28;20515;-66
2022/08/21 11:44:44;;;;;;;1.30;1.10;;;29.00;56.20;;;;;;6225460;28;20243;-65
2022/08/21 11:48:00;;;;;;;0.90;0.80;;;28.80;56.90;;;;;;6225769;28;20224;-65
2022/08/21 11:51:11;;;;;;;1.10;0.97;;;28.60;57.20;;;;;;6225441;28;20312;-64
2022/08/21 11:54:34;;;;;;;1.43;1.10;;;28.30;57.30;;;;;;6225083;28;20560;-64
2022/08/21 11:57:45;;;;;;;1.00;0.60;;;28.10;57.70;;;;;;6225340;28;20237;-65
2022/08/21 12:00:53;;;;;;;1.90;0.60;;;28.20;58.20;;;;;;6225048;28;20243;-65
2022/08/21 12:04:03;;;;;;;1.40;0.90;;;28.20;58.00;;;;;;6225336;28;20239;-65
2022/08/21 12:07:13;;;;;;;1.10;0.50;;;28.40;57.70;;;;;;6225157;28;20232;-65
2022/08/21 12:10:20;;;;;;;1.53;0.77;;;28.50;57.60;;;;;;6229728;28;20209;-65
2022/08/21 12:13:26;;;;;;;1.00;0.60;;;28.70;57.80;;;;;;6230127;28;20231;-65
2022/08/21 12:16:47;;;;;;;1.77;0.63;;;28.80;57.60;;;;;;6230307;28;20232;-64
2022/08/21 12:19:58;;;;;;;0.90;0.80;;;28.80;57.30;;;;;;6235040;28;20227;-67
2022/08/21 12:23:06;;;;;;;1.30;0.57;;;28.70;57.30;;;;;;6229695;28;20676;-65
2022/08/21 12:26:27;;;;;;;0.70;0.50;;;28.40;57.40;;;;;;6230619;28;20224;-64
2022/08/21 12:29:32;;;;;;;1.07;0.80;;;28.20;58.00;;;;;;6230358;28;20248;-65
2022/08/21 12:32:46;;;;;;;1.20;0.80;;;28.10;58.30;;;;;;6229944;28;20236;-67
2022/08/21 12:36:01;;;;;;;0.90;0.60;;;27.80;58.50;;;;;;6204885;28;20744;-64
2022/08/21 12:39:12;;;;;;;1.50;0.70;;;27.60;59.10;;;;;;6208874;28;20240;-63
2022/08/21 12:42:19;;;;;;;0.70;0.60;;;27.30;59.40;;;;;;6238620;28;20216;-63
2022/08/21 12:45:29;;;;;;;0.80;0.50;;;27.00;59.80;;;;;;6239805;28;20239;-63
2022/08/21 12:48:41;;;;;;;0.93;0.70;;;26.90;60.20;;;;;;6237132;28;20562;-63
2022/08/21 12:51:55;;;;;;;0.77;0.50;;;27.10;61.00;;;;;;6236455;28;20220;-63
2022/08/21 12:54:59;;;;;;;0.80;0.50;;;27.50;60.50;;;;;;6238408;28;20249;-65
2022/08/21 12:58:02;;;;;;;0.80;0.50;;;27.60;59.60;;;;;;6239992;28;20225;-64
2022/08/21 13:01:08;;;;;;;1.03;0.50;;;27.60;59.60;;;;;;6239399;28;20216;-64
2022/08/21 13:04:17;;;;;;;0.83;0.53;;;27.50;60.00;;;;;;6248549;28;20227;-64
2022/08/21 13:07:26;;;;;;;0.90;0.60;;;27.30;60.00;;;;;;6248500;28;20633;-64
2022/08/21 13:10:32;;;;;;;5.13;1.17;;;27.20;60.70;;;;;;6229079;28;20485;-64
2022/08/21 13:13:35;;;;;;;3.07;0.63;;;27.20;61.40;;;;;;6228434;28;20239;-64
2022/08/21 13:16:46;;;;;;;12.77;2.90;;;27.30;61.80;;;;;;6228944;28;20224;-64
2022/08/21 13:19:57;;;;;;;0.90;0.57;;;27.20;60.70;;;;;;6228100;28;20564;-64
2022/08/21 13:23:02;;;;;;;0.80;0.50;;;27.00;60.60;;;;;;6227405;28;20229;-64
2022/08/21 13:26:13;;;;;;;0.93;0.70;;;26.80;60.80;;;;;;6227586;28;20236;-64
2022/08/21 13:29:23;;;;;;;1.00;0.50;;;26.60;62.20;;;;;;6228150;28;20290;-64
2022/08/21 13:32:28;;;;;;;2.10;0.50;;;26.50;61.30;;;;;;6227811;28;20239;-64
2022/08/21 13:35:46;;;;;;;1.47;0.40;;;26.40;61.40;;;;;;6188661;28;1116073;-64
2022/08/21 13:38:52;;;;;;;0.80;0.43;;;26.10;62.10;;;;;;6228641;28;20247;-64
2022/08/21 13:41:59;;;;;;;1.83;0.37;;;25.90;62.90;;;;;;6229751;28;20239;-64
2022/08/21 13:45:05;;;;;;;3.27;0.50;;;25.90;63.20;;;;;;6228512;28;20337;-64
2022/08/21 13:48:08;;;;;;;1.00;0.40;;;25.70;63.20;;;;;;6228142;28;20313;-64
2022/08/21 13:51:13;;;;;;;0.80;0.37;;;25.80;63.70;;;;;;6235339;28;20234;-64
2022/08/21 13:54:22;;;;;;;0.90;0.50;;;25.70;62.80;;;;;;6243138;28;20230;-63
2022/08/21 13:57:27;;;;;;;1.23;0.50;;;25.80;63.40;;;;;;6242841;28;20239;-63
2022/08/21 14:00:34;;;;;;;0.70;0.40;;;25.80;62.90;;;;;;6228640;28;20237;-64
2022/08/21 14:03:43;;;;;;;0.70;0.43;;;25.70;63.20;;;;;;6226549;28;20265;-64
2022/08/21 14:06:48;;;;;;;0.70;0.50;;;25.70;63.80;;;;;;6203307;28;20244;-64
2022/08/21 14:09:51;;;;;;;0.90;0.70;;;25.70;63.80;;;;;;6225646;28;20680;-64
2022/08/21 14:12:58;;;;;;;1.03;0.60;;;25.80;63.90;;;;;;6215652;28;20232;-64
2022/08/21 14:16:03;;;;;;;3.43;0.63;;;26.00;64.20;;;;;;6214589;28;20786;-64
2022/08/21 14:19:12;;;;;;;1.73;0.70;;;26.10;64.00;;;;;;6229252;28;20221;-65
2022/08/21 14:22:38;;;;;;;1.10;0.50;;;26.10;63.70;;;;;;6222794;28;20206;-64
2022/08/21 14:25:44;;;;;;;0.70;0.50;;;26.10;64.00;;;;;;6219157;28;20232;-66
2022/08/21 14:28:48;;;;;;;1.10;0.70;;;26.10;64.00;;;;;;6168915;28;20226;-65
2022/08/21 14:31:53;;;;;;;0.70;0.40;;;26.10;63.60;;;;;;6153997;28;20226;-64
2022/08/21 14:34:56;;;;;;;1.77;0.70;;;26.20;63.50;;;;;;6131571;28;20239;-67
2022/08/21 14:38:02;;;;;;;1.77;0.60;;;26.30;64.10;;;;;;6152831;28;20230;-66
2022/08/21 14:41:15;;;;;;;1.10;0.73;;;26.40;63.70;;;;;;6153978;28;20241;-66
2022/08/21 14:44:19;;;;;;;1.00;0.80;;;26.40;63.80;;;;;;6153979;28;20227;-67
2022/08/21 14:47:23;;;;;;;0.90;0.60;;;26.50;62.80;;;;;;6153574;28;20343;-62
2022/08/21 14:50:26;;;;;;;1.00;0.83;;;26.50;62.70;;;;;;6153703;28;20223;-62
2022/08/21 14:53:31;;;;;;;1.10;0.67;;;26.70;62.50;;;;;;6152811;28;20673;-63
2022/08/21 14:56:35;;;;;;;0.90;0.60;;;26.60;61.60;;;;;;6153339;28;20569;-62
2022/08/21 14:59:39;;;;;;;0.80;0.67;;;26.60;62.20;;;;;;6153601;28;20237;-62
2022/08/21 15:02:42;;;;;;;1.00;0.90;;;26.50;61.60;;;;;;6150316;28;20233;-62
2022/08/21 15:05:46;;;;;;;2.67;1.10;;;26.50;60.20;;;;;;6153493;28;20241;-62
2022/08/21 15:08:50;;;;;;;5.07;1.40;;;26.50;58.90;;;;;;6153090;28;20226;-62
2022/08/21 15:11:56;;;;;;;1.83;1.73;;;26.40;59.50;;;;;;6153045;28;20238;-62
2022/08/21 15:14:59;;;;;;;1.30;1.20;;;26.40;59.00;;;;;;6153028;28;20245;-63
2022/08/21 15:18:02;;;;;;;2.37;1.57;;;26.30;59.10;;;;;;6153896;28;20226;-63
2022/08/21 15:21:05;;;;;;;2.30;1.97;;;26.20;58.70;;;;;;6154080;28;20245;-66
2022/08/21 15:24:10;;;;;;;1.37;1.13;;;26.30;59.40;;;;;;6153663;28;20242;-63
2022/08/21 15:27:14;;;;;;;2.07;1.87;;;26.30;57.70;;;;;;6152537;28;20242;-65
2022/08/21 15:30:18;;;;;;;1.80;1.70;;;26.10;57.30;;;;;;6153201;28;20309;-65
2022/08/21 15:33:22;;;;;;;4.97;2.80;;;26.10;57.50;;;;;;6152935;28;20369;-65
2022/08/21 15:39:01;;;;;;;2.60;2.33;;;26.10;57.60;;;;;;6277228;28;20564;-63
2022/08/21 15:42:05;;;;;;;5.10;2.90;;;26.10;57.60;;;;;;6253005;28;20223;-63
2022/08/21 15:45:14;;;;;;;2.40;2.20;;;26.10;59.80;;;;;;6267871;28;20265;-65
2022/08/21 15:48:17;;;;;;;4.17;2.27;;;26.20;58.70;;;;;;6262183;28;20230;-65
2022/08/21 15:51:20;;;;;;;1.83;1.70;;;26.10;58.00;;;;;;6259800;28;20223;-65
2022/08/21 15:54:25;;;;;;;2.97;2.20;;;26.10;57.80;;;;;;6246441;28;20703;-66
2022/08/21 15:57:28;;;;;;;2.13;1.93;;;26.00;57.20;;;;;;6246918;28;20231;-65
2022/08/21 16:00:34;;;;;;;1.97;1.80;;;25.90;57.40;;;;;;6254248;28;20227;-67
2022/08/21 16:03:37;;;;;;;2.57;2.37;;;25.80;58.40;;;;;;6272250;28;20238;-65
2022/08/21 16:06:40;;;;;;;2.03;1.93;;;25.70;58.40;;;;;;6271694;28;20223;-65
2022/08/21 16:10:02;;;;;;;2.43;2.23;;;25.70;58.90;;;;;;6248478;28;20228;-66
2022/08/21 16:13:08;;;;;;;1.70;1.43;;;25.70;58.80;;;;;;6246208;28;20228;-65